sensor_id;sensor_type;location;lat;lon;timestamp;P1;durP1;ratioP1;P2;durP2;ratioP2
70929;SDS011;58588;48.102;19.682;2024-03-25T00:02:00;9.17;;;2.93;;
70929;SDS011;58588;48.102;19.682;2024-03-25T00:05:02;12.77;;;4.38;;
70929;SDS011;58588;48.102;19.682;2024-03-25T00:08:05;9.77;;;3.88;;
70929;SDS011;58588;48.102;19.682;2024-03-25T00:11:07;7.72;;;2.25;;
70929;SDS011;58588;48.102;19.682;2024-03-25T00:14:09;8.03;;;2.60;;
70929;SDS011;58588;48.102;19.682;2024-03-25T00:17:12;7.88;;;2.50;;
70929;SDS011;58588;48.102;19.682;2024-03-25T00:20:15;9.07;;;3.30;;
70929;SDS011;58588;48.102;19.682;2024-03-25T00:23:16;9.70;;;2.97;;
70929;SDS011;58588;48.102;19.682;2024-03-25T00:26:18;8.10;;;2.47;;
70929;SDS011;58588;48.102;19.682;2024-03-25T00:29:20;6.70;;;2.27;;
70929;SDS011;58588;48.102;19.682;2024-03-25T00:32:23;9.25;;;2.28;;
70929;SDS011;58588;48.102;19.682;2024-03-25T00:35:25;9.43;;;2.53;;
70929;SDS011;58588;48.102;19.682;2024-03-25T00:38:26;9.15;;;2.90;;
70929;SDS011;58588;48.102;19.682;2024-03-25T00:41:28;8.47;;;3.10;;
70929;SDS011;58588;48.102;19.682;2024-03-25T00:44:28;7.68;;;2.42;;
70929;SDS011;58588;48.102;19.682;2024-03-25T00:47:32;9.40;;;2.88;;
70929;SDS011;58588;48.102;19.682;2024-03-25T00:50:33;13.38;;;3.63;;
70929;SDS011;58588;48.102;19.682;2024-03-25T00:53:35;11.57;;;3.00;;
70929;SDS011;58588;48.102;19.682;2024-03-25T00:56:39;10.50;;;3.22;;
70929;SDS011;58588;48.102;19.682;2024-03-25T00:59:41;12.90;;;3.50;;
70929;SDS011;58588;48.102;19.682;2024-03-25T01:02:43;14.48;;;3.95;;
70929;SDS011;58588;48.102;19.682;2024-03-25T01:05:45;12.03;;;3.30;;
70929;SDS011;58588;48.102;19.682;2024-03-25T01:08:46;11.52;;;3.78;;
70929;SDS011;58588;48.102;19.682;2024-03-25T01:11:48;13.50;;;4.18;;
70929;SDS011;58588;48.102;19.682;2024-03-25T01:14:49;12.80;;;3.90;;
70929;SDS011;58588;48.102;19.682;2024-03-25T01:17:52;12.00;;;3.42;;
70929;SDS011;58588;48.102;19.682;2024-03-25T01:20:53;10.25;;;3.40;;
70929;SDS011;58588;48.102;19.682;2024-03-25T01:23:55;9.73;;;3.33;;
70929;SDS011;58588;48.102;19.682;2024-03-25T01:26:56;8.90;;;2.80;;
70929;SDS011;58588;48.102;19.682;2024-03-25T01:29:57;9.40;;;2.80;;
70929;SDS011;58588;48.102;19.682;2024-03-25T01:33:00;8.35;;;2.80;;
70929;SDS011;58588;48.102;19.682;2024-03-25T01:36:02;9.95;;;2.95;;
70929;SDS011;58588;48.102;19.682;2024-03-25T01:39:03;11.35;;;2.53;;
70929;SDS011;58588;48.102;19.682;2024-03-25T01:42:05;7.63;;;2.37;;
70929;SDS011;58588;48.102;19.682;2024-03-25T01:45:06;8.35;;;2.88;;
70929;SDS011;58588;48.102;19.682;2024-03-25T01:48:11;9.25;;;2.78;;
70929;SDS011;58588;48.102;19.682;2024-03-25T01:51:13;9.80;;;2.63;;
70929;SDS011;58588;48.102;19.682;2024-03-25T01:54:17;9.73;;;2.83;;
70929;SDS011;58588;48.102;19.682;2024-03-25T01:57:20;9.10;;;2.88;;
70929;SDS011;58588;48.102;19.682;2024-03-25T02:00:21;8.68;;;3.00;;
70929;SDS011;58588;48.102;19.682;2024-03-25T02:03:27;9.68;;;2.70;;
70929;SDS011;58588;48.102;19.682;2024-03-25T02:06:29;10.00;;;3.63;;
70929;SDS011;58588;48.102;19.682;2024-03-25T02:09:31;10.35;;;3.15;;
70929;SDS011;58588;48.102;19.682;2024-03-25T02:12:34;7.43;;;2.40;;
70929;SDS011;58588;48.102;19.682;2024-03-25T02:15:35;11.40;;;3.05;;
70929;SDS011;58588;48.102;19.682;2024-03-25T02:18:39;13.80;;;4.10;;
70929;SDS011;58588;48.102;19.682;2024-03-25T02:21:40;10.37;;;3.57;;
70929;SDS011;58588;48.102;19.682;2024-03-25T02:24:42;13.07;;;4.07;;
70929;SDS011;58588;48.102;19.682;2024-03-25T02:27:47;14.77;;;4.50;;
70929;SDS011;58588;48.102;19.682;2024-03-25T02:30:49;18.35;;;5.47;;
70929;SDS011;58588;48.102;19.682;2024-03-25T02:33:51;16.67;;;5.60;;
70929;SDS011;58588;48.102;19.682;2024-03-25T02:36:52;15.90;;;4.77;;
70929;SDS011;58588;48.102;19.682;2024-03-25T02:39:54;13.65;;;3.70;;
70929;SDS011;58588;48.102;19.682;2024-03-25T02:42:59;11.25;;;3.70;;
70929;SDS011;58588;48.102;19.682;2024-03-25T02:46:02;10.25;;;3.08;;
70929;SDS011;58588;48.102;19.682;2024-03-25T02:49:03;12.20;;;4.50;;
70929;SDS011;58588;48.102;19.682;2024-03-25T02:52:05;14.10;;;4.82;;
70929;SDS011;58588;48.102;19.682;2024-03-25T02:55:07;16.30;;;5.35;;
70929;SDS011;58588;48.102;19.682;2024-03-25T02:58:10;11.23;;;3.75;;
70929;SDS011;58588;48.102;19.682;2024-03-25T03:01:12;16.80;;;5.40;;
70929;SDS011;58588;48.102;19.682;2024-03-25T03:04:13;9.88;;;4.03;;
70929;SDS011;58588;48.102;19.682;2024-03-25T03:07:15;11.25;;;3.80;;
70929;SDS011;58588;48.102;19.682;2024-03-25T03:10:17;12.48;;;4.15;;
70929;SDS011;58588;48.102;19.682;2024-03-25T03:13:19;10.87;;;3.50;;
70929;SDS011;58588;48.102;19.682;2024-03-25T03:16:21;13.43;;;4.03;;
70929;SDS011;58588;48.102;19.682;2024-03-25T03:19:22;11.88;;;3.83;;
70929;SDS011;58588;48.102;19.682;2024-03-25T03:22:24;9.93;;;3.40;;
70929;SDS011;58588;48.102;19.682;2024-03-25T03:25:25;11.60;;;3.78;;
70929;SDS011;58588;48.102;19.682;2024-03-25T03:28:28;10.45;;;3.72;;
70929;SDS011;58588;48.102;19.682;2024-03-25T03:31:30;9.40;;;3.10;;
70929;SDS011;58588;48.102;19.682;2024-03-25T03:34:31;11.93;;;3.40;;
70929;SDS011;58588;48.102;19.682;2024-03-25T03:37:33;10.48;;;3.03;;
70929;SDS011;58588;48.102;19.682;2024-03-25T03:40:34;9.82;;;2.83;;
70929;SDS011;58588;48.102;19.682;2024-03-25T03:43:37;11.00;;;3.30;;
70929;SDS011;58588;48.102;19.682;2024-03-25T03:46:39;10.73;;;3.20;;
70929;SDS011;58588;48.102;19.682;2024-03-25T03:49:40;9.70;;;3.10;;
70929;SDS011;58588;48.102;19.682;2024-03-25T03:52:42;10.43;;;3.53;;
70929;SDS011;58588;48.102;19.682;2024-03-25T03:55:52;9.48;;;3.13;;
70929;SDS011;58588;48.102;19.682;2024-03-25T03:58:56;9.83;;;3.40;;
70929;SDS011;58588;48.102;19.682;2024-03-25T04:01:58;9.82;;;3.35;;
70929;SDS011;58588;48.102;19.682;2024-03-25T04:04:59;10.45;;;3.78;;
70929;SDS011;58588;48.102;19.682;2024-03-25T04:08:00;10.55;;;3.45;;
70929;SDS011;58588;48.102;19.682;2024-03-25T04:11:02;8.83;;;2.80;;
70929;SDS011;58588;48.102;19.682;2024-03-25T04:14:07;10.00;;;3.10;;
70929;SDS011;58588;48.102;19.682;2024-03-25T04:17:12;9.75;;;3.05;;
70929;SDS011;58588;48.102;19.682;2024-03-25T04:20:13;13.40;;;4.40;;
70929;SDS011;58588;48.102;19.682;2024-03-25T04:23:15;11.98;;;4.40;;
70929;SDS011;58588;48.102;19.682;2024-03-25T04:26:16;9.52;;;3.38;;
70929;SDS011;58588;48.102;19.682;2024-03-25T04:29:19;9.77;;;3.70;;
70929;SDS011;58588;48.102;19.682;2024-03-25T04:32:20;9.98;;;3.30;;
70929;SDS011;58588;48.102;19.682;2024-03-25T04:35:22;8.40;;;2.85;;
70929;SDS011;58588;48.102;19.682;2024-03-25T04:38:23;9.38;;;2.90;;
70929;SDS011;58588;48.102;19.682;2024-03-25T04:41:24;9.47;;;3.10;;
70929;SDS011;58588;48.102;19.682;2024-03-25T04:44:28;9.38;;;2.92;;
70929;SDS011;58588;48.102;19.682;2024-03-25T04:47:29;11.57;;;2.85;;
70929;SDS011;58588;48.102;19.682;2024-03-25T04:50:30;8.98;;;2.83;;
70929;SDS011;58588;48.102;19.682;2024-03-25T04:53:31;8.37;;;2.90;;
70929;SDS011;58588;48.102;19.682;2024-03-25T04:56:32;9.55;;;2.97;;
70929;SDS011;58588;48.102;19.682;2024-03-25T04:59:36;10.48;;;3.72;;
70929;SDS011;58588;48.102;19.682;2024-03-25T05:02:37;9.97;;;3.47;;
70929;SDS011;58588;48.102;19.682;2024-03-25T05:05:38;9.35;;;2.95;;
70929;SDS011;58588;48.102;19.682;2024-03-25T05:08:39;9.88;;;3.55;;
70929;SDS011;58588;48.102;19.682;2024-03-25T05:11:40;10.40;;;3.97;;
70929;SDS011;58588;48.102;19.682;2024-03-25T05:14:42;11.35;;;3.53;;
70929;SDS011;58588;48.102;19.682;2024-03-25T05:17:43;11.93;;;3.88;;
70929;SDS011;58588;48.102;19.682;2024-03-25T05:20:44;11.37;;;4.27;;
70929;SDS011;58588;48.102;19.682;2024-03-25T05:23:55;14.20;;;4.30;;
70929;SDS011;58588;48.102;19.682;2024-03-25T05:26:56;10.30;;;3.90;;
70929;SDS011;58588;48.102;19.682;2024-03-25T05:30:06;11.70;;;4.82;;
70929;SDS011;58588;48.102;19.682;2024-03-25T05:33:08;10.05;;;3.72;;
70929;SDS011;58588;48.102;19.682;2024-03-25T05:36:09;9.07;;;3.67;;
70929;SDS011;58588;48.102;19.682;2024-03-25T05:39:10;11.80;;;3.58;;
70929;SDS011;58588;48.102;19.682;2024-03-25T05:42:11;12.27;;;4.33;;
70929;SDS011;58588;48.102;19.682;2024-03-25T05:45:15;18.98;;;7.47;;
70929;SDS011;58588;48.102;19.682;2024-03-25T05:48:16;13.65;;;4.75;;
70929;SDS011;58588;48.102;19.682;2024-03-25T05:51:17;10.40;;;3.97;;
70929;SDS011;58588;48.102;19.682;2024-03-25T05:54:25;12.00;;;4.30;;
70929;SDS011;58588;48.102;19.682;2024-03-25T05:57:25;10.88;;;3.60;;
70929;SDS011;58588;48.102;19.682;2024-03-25T06:00:31;12.05;;;4.18;;
70929;SDS011;58588;48.102;19.682;2024-03-25T06:03:32;11.45;;;3.38;;
70929;SDS011;58588;48.102;19.682;2024-03-25T06:06:33;22.23;;;6.43;;
70929;SDS011;58588;48.102;19.682;2024-03-25T06:09:33;34.38;;;11.27;;
70929;SDS011;58588;48.102;19.682;2024-03-25T06:12:34;33.03;;;12.90;;
70929;SDS011;58588;48.102;19.682;2024-03-25T06:15:37;16.43;;;6.87;;
70929;SDS011;58588;48.102;19.682;2024-03-25T06:18:38;11.95;;;3.97;;
70929;SDS011;58588;48.102;19.682;2024-03-25T06:21:39;14.77;;;6.80;;
70929;SDS011;58588;48.102;19.682;2024-03-25T06:24:40;13.23;;;4.80;;
70929;SDS011;58588;48.102;19.682;2024-03-25T06:27:40;10.55;;;3.90;;
70929;SDS011;58588;48.102;19.682;2024-03-25T06:30:44;10.10;;;4.10;;
70929;SDS011;58588;48.102;19.682;2024-03-25T06:34:04;7.40;;;2.43;;
70929;SDS011;58588;48.102;19.682;2024-03-25T06:37:20;7.20;;;2.42;;
70929;SDS011;58588;48.102;19.682;2024-03-25T06:40:21;8.75;;;3.10;;
70929;SDS011;58588;48.102;19.682;2024-03-25T06:43:22;8.47;;;2.23;;
70929;SDS011;58588;48.102;19.682;2024-03-25T06:46:24;7.07;;;2.57;;
70929;SDS011;58588;48.102;19.682;2024-03-25T06:49:25;7.20;;;2.50;;
70929;SDS011;58588;48.102;19.682;2024-03-25T06:52:26;7.22;;;2.53;;
70929;SDS011;58588;48.102;19.682;2024-03-25T06:55:27;7.67;;;2.30;;
70929;SDS011;58588;48.102;19.682;2024-03-25T06:58:28;7.43;;;2.40;;
70929;SDS011;58588;48.102;19.682;2024-03-25T07:01:30;6.88;;;2.22;;
70929;SDS011;58588;48.102;19.682;2024-03-25T07:04:31;7.23;;;2.43;;
70929;SDS011;58588;48.102;19.682;2024-03-25T07:07:32;8.57;;;2.13;;
70929;SDS011;58588;48.102;19.682;2024-03-25T07:10:33;6.15;;;1.95;;
70929;SDS011;58588;48.102;19.682;2024-03-25T07:13:34;8.17;;;2.17;;
70929;SDS011;58588;48.102;19.682;2024-03-25T07:16:36;6.72;;;2.03;;
70929;SDS011;58588;48.102;19.682;2024-03-25T07:19:37;6.07;;;1.75;;
70929;SDS011;58588;48.102;19.682;2024-03-25T07:22:38;6.23;;;1.87;;
70929;SDS011;58588;48.102;19.682;2024-03-25T07:25:39;5.50;;;1.80;;
70929;SDS011;58588;48.102;19.682;2024-03-25T07:28:40;5.60;;;1.80;;
70929;SDS011;58588;48.102;19.682;2024-03-25T07:31:42;6.27;;;1.80;;
70929;SDS011;58588;48.102;19.682;2024-03-25T07:34:43;5.32;;;1.77;;
70929;SDS011;58588;48.102;19.682;2024-03-25T07:37:44;5.88;;;1.90;;
70929;SDS011;58588;48.102;19.682;2024-03-25T07:40:45;6.53;;;1.80;;
70929;SDS011;58588;48.102;19.682;2024-03-25T07:43:46;5.88;;;1.92;;
70929;SDS011;58588;48.102;19.682;2024-03-25T07:46:48;6.32;;;2.10;;
70929;SDS011;58588;48.102;19.682;2024-03-25T07:49:49;6.23;;;1.90;;
70929;SDS011;58588;48.102;19.682;2024-03-25T07:52:50;6.97;;;1.73;;
70929;SDS011;58588;48.102;19.682;2024-03-25T07:55:51;7.30;;;1.92;;
70929;SDS011;58588;48.102;19.682;2024-03-25T07:58:52;4.63;;;1.25;;
70929;SDS011;58588;48.102;19.682;2024-03-25T08:01:54;5.70;;;1.83;;
70929;SDS011;58588;48.102;19.682;2024-03-25T08:04:55;6.82;;;2.03;;
70929;SDS011;58588;48.102;19.682;2024-03-25T08:07:56;7.28;;;1.98;;
70929;SDS011;58588;48.102;19.682;2024-03-25T08:10:57;5.53;;;1.70;;
70929;SDS011;58588;48.102;19.682;2024-03-25T08:13:58;5.93;;;1.70;;
70929;SDS011;58588;48.102;19.682;2024-03-25T08:17:00;5.97;;;1.87;;
70929;SDS011;58588;48.102;19.682;2024-03-25T08:20:01;5.93;;;1.80;;
70929;SDS011;58588;48.102;19.682;2024-03-25T08:23:03;4.72;;;1.30;;
70929;SDS011;58588;48.102;19.682;2024-03-25T08:26:04;5.25;;;1.60;;
70929;SDS011;58588;48.102;19.682;2024-03-25T08:29:05;5.23;;;1.67;;
70929;SDS011;58588;48.102;19.682;2024-03-25T08:32:07;7.43;;;1.60;;
70929;SDS011;58588;48.102;19.682;2024-03-25T08:35:08;5.45;;;1.77;;
70929;SDS011;58588;48.102;19.682;2024-03-25T08:38:09;5.40;;;1.43;;
70929;SDS011;58588;48.102;19.682;2024-03-25T08:41:10;5.40;;;1.50;;
70929;SDS011;58588;48.102;19.682;2024-03-25T08:44:11;5.90;;;1.55;;
70929;SDS011;58588;48.102;19.682;2024-03-25T08:47:13;5.77;;;1.90;;
70929;SDS011;58588;48.102;19.682;2024-03-25T08:50:14;5.43;;;1.58;;
70929;SDS011;58588;48.102;19.682;2024-03-25T08:53:15;5.00;;;1.48;;
70929;SDS011;58588;48.102;19.682;2024-03-25T08:56:16;5.85;;;1.65;;
70929;SDS011;58588;48.102;19.682;2024-03-25T08:59:18;4.77;;;1.40;;
70929;SDS011;58588;48.102;19.682;2024-03-25T09:02:20;5.35;;;1.50;;
70929;SDS011;58588;48.102;19.682;2024-03-25T09:05:21;5.18;;;1.70;;
70929;SDS011;58588;48.102;19.682;2024-03-25T09:08:22;5.60;;;1.50;;
70929;SDS011;58588;48.102;19.682;2024-03-25T09:11:23;7.23;;;1.40;;
70929;SDS011;58588;48.102;19.682;2024-03-25T09:14:24;5.33;;;1.80;;
70929;SDS011;58588;48.102;19.682;2024-03-25T09:17:26;4.55;;;1.13;;
70929;SDS011;58588;48.102;19.682;2024-03-25T09:20:27;4.78;;;1.13;;
70929;SDS011;58588;48.102;19.682;2024-03-25T09:23:28;6.17;;;1.20;;
70929;SDS011;58588;48.102;19.682;2024-03-25T09:26:29;4.40;;;1.10;;
70929;SDS011;58588;48.102;19.682;2024-03-25T09:29:30;3.75;;;1.00;;
70929;SDS011;58588;48.102;19.682;2024-03-25T09:32:33;4.67;;;1.30;;
70929;SDS011;58588;48.102;19.682;2024-03-25T09:35:33;5.07;;;1.30;;
70929;SDS011;58588;48.102;19.682;2024-03-25T09:38:34;4.60;;;1.33;;
70929;SDS011;58588;48.102;19.682;2024-03-25T09:41:35;5.50;;;1.20;;
70929;SDS011;58588;48.102;19.682;2024-03-25T09:44:36;5.10;;;1.17;;
70929;SDS011;58588;48.102;19.682;2024-03-25T09:47:39;4.47;;;1.17;;
70929;SDS011;58588;48.102;19.682;2024-03-25T09:50:40;6.07;;;1.48;;
70929;SDS011;58588;48.102;19.682;2024-03-25T09:53:41;9.30;;;2.00;;
70929;SDS011;58588;48.102;19.682;2024-03-25T09:56:42;5.00;;;1.40;;
70929;SDS011;58588;48.102;19.682;2024-03-25T09:59:44;6.53;;;1.52;;
70929;SDS011;58588;48.102;19.682;2024-03-25T10:02:46;5.90;;;1.25;;
70929;SDS011;58588;48.102;19.682;2024-03-25T10:05:47;4.40;;;1.00;;
70929;SDS011;58588;48.102;19.682;2024-03-25T10:08:48;5.40;;;1.57;;
70929;SDS011;58588;48.102;19.682;2024-03-25T10:11:53;5.53;;;1.30;;
70929;SDS011;58588;48.102;19.682;2024-03-25T10:14:54;4.55;;;1.20;;
70929;SDS011;58588;48.102;19.682;2024-03-25T10:17:56;5.80;;;1.50;;
70929;SDS011;58588;48.102;19.682;2024-03-25T10:20:57;4.97;;;1.20;;
70929;SDS011;58588;48.102;19.682;2024-03-25T10:23:58;4.80;;;1.30;;
70929;SDS011;58588;48.102;19.682;2024-03-25T10:26:59;4.37;;;1.10;;
70929;SDS011;58588;48.102;19.682;2024-03-25T10:30:00;4.23;;;1.07;;
70929;SDS011;58588;48.102;19.682;2024-03-25T10:33:02;4.47;;;1.00;;
70929;SDS011;58588;48.102;19.682;2024-03-25T10:36:04;4.00;;;0.93;;
70929;SDS011;58588;48.102;19.682;2024-03-25T10:39:07;4.10;;;0.90;;
70929;SDS011;58588;48.102;19.682;2024-03-25T10:42:09;5.43;;;1.10;;
70929;SDS011;58588;48.102;19.682;2024-03-25T10:45:14;5.03;;;1.13;;
70929;SDS011;58588;48.102;19.682;2024-03-25T10:48:17;4.68;;;1.13;;
70929;SDS011;58588;48.102;19.682;2024-03-25T10:51:22;6.95;;;2.33;;
70929;SDS011;58588;48.102;19.682;2024-03-25T10:54:24;3.87;;;1.00;;
70929;SDS011;58588;48.102;19.682;2024-03-25T10:57:26;4.00;;;1.00;;
70929;SDS011;58588;48.102;19.682;2024-03-25T11:00:28;4.57;;;0.90;;
70929;SDS011;58588;48.102;19.682;2024-03-25T11:03:31;8.63;;;1.00;;
70929;SDS011;58588;48.102;19.682;2024-03-25T11:06:33;4.32;;;1.00;;
70929;SDS011;58588;48.102;19.682;2024-03-25T11:09:34;4.90;;;0.80;;
70929;SDS011;58588;48.102;19.682;2024-03-25T11:12:35;5.20;;;1.05;;
70929;SDS011;58588;48.102;19.682;2024-03-25T11:15:37;4.97;;;1.00;;
70929;SDS011;58588;48.102;19.682;2024-03-25T11:18:50;4.95;;;1.13;;
70929;SDS011;58588;48.102;19.682;2024-03-25T11:21:51;7.77;;;0.77;;
70929;SDS011;58588;48.102;19.682;2024-03-25T11:24:54;2.78;;;0.50;;
70929;SDS011;58588;48.102;19.682;2024-03-25T11:27:55;2.40;;;0.40;;
70929;SDS011;58588;48.102;19.682;2024-03-25T11:30:56;3.85;;;0.50;;
70929;SDS011;58588;48.102;19.682;2024-03-25T11:34:02;3.70;;;0.40;;
70929;SDS011;58588;48.102;19.682;2024-03-25T11:37:04;3.10;;;0.50;;
70929;SDS011;58588;48.102;19.682;2024-03-25T11:40:06;5.28;;;0.90;;
70929;SDS011;58588;48.102;19.682;2024-03-25T11:43:07;7.10;;;0.85;;
70929;SDS011;58588;48.102;19.682;2024-03-25T11:46:09;6.20;;;0.80;;
70929;SDS011;58588;48.102;19.682;2024-03-25T11:49:11;5.40;;;1.10;;
70929;SDS011;58588;48.102;19.682;2024-03-25T11:52:14;2.78;;;0.47;;
70929;SDS011;58588;48.102;19.682;2024-03-25T11:55:16;1.83;;;0.20;;
70929;SDS011;58588;48.102;19.682;2024-03-25T11:58:17;2.88;;;0.50;;
70929;SDS011;58588;48.102;19.682;2024-03-25T12:01:18;3.83;;;0.50;;
70929;SDS011;58588;48.102;19.682;2024-03-25T12:04:21;4.03;;;0.60;;
70929;SDS011;58588;48.102;19.682;2024-03-25T12:07:21;2.83;;;0.40;;
70929;SDS011;58588;48.102;19.682;2024-03-25T12:10:22;2.75;;;0.40;;
70929;SDS011;58588;48.102;19.682;2024-03-25T12:13:42;2.57;;;0.50;;
70929;SDS011;58588;48.102;19.682;2024-03-25T12:16:44;2.95;;;0.50;;
70929;SDS011;58588;48.102;19.682;2024-03-25T12:19:58;3.17;;;0.50;;
70929;SDS011;58588;48.102;19.682;2024-03-25T12:23:03;2.33;;;0.47;;
70929;SDS011;58588;48.102;19.682;2024-03-25T12:26:05;3.85;;;0.70;;
70929;SDS011;58588;48.102;19.682;2024-03-25T12:29:06;3.83;;;0.60;;
70929;SDS011;58588;48.102;19.682;2024-03-25T12:32:09;3.42;;;0.68;;
70929;SDS011;58588;48.102;19.682;2024-03-25T12:35:12;3.15;;;0.70;;
70929;SDS011;58588;48.102;19.682;2024-03-25T12:38:23;3.75;;;0.90;;
70929;SDS011;58588;48.102;19.682;2024-03-25T12:41:25;5.75;;;0.98;;
70929;SDS011;58588;48.102;19.682;2024-03-25T12:44:26;3.83;;;0.80;;
70929;SDS011;58588;48.102;19.682;2024-03-25T12:47:27;3.45;;;0.70;;
70929;SDS011;58588;48.102;19.682;2024-03-25T12:50:29;3.22;;;0.73;;
70929;SDS011;58588;48.102;19.682;2024-03-25T12:53:30;4.63;;;0.70;;
70929;SDS011;58588;48.102;19.682;2024-03-25T12:56:31;3.33;;;0.70;;
70929;SDS011;58588;48.102;19.682;2024-03-25T12:59:32;4.55;;;0.90;;
70929;SDS011;58588;48.102;19.682;2024-03-25T13:02:33;3.83;;;0.73;;
70929;SDS011;58588;48.102;19.682;2024-03-25T13:05:36;4.00;;;0.80;;
70929;SDS011;58588;48.102;19.682;2024-03-25T13:08:37;3.67;;;0.70;;
70929;SDS011;58588;48.102;19.682;2024-03-25T13:11:38;3.35;;;0.70;;
70929;SDS011;58588;48.102;19.682;2024-03-25T13:14:39;3.53;;;0.75;;
70929;SDS011;58588;48.102;19.682;2024-03-25T13:17:40;3.58;;;0.80;;
70929;SDS011;58588;48.102;19.682;2024-03-25T13:20:43;3.73;;;0.60;;
70929;SDS011;58588;48.102;19.682;2024-03-25T13:23:44;3.53;;;0.75;;
70929;SDS011;58588;48.102;19.682;2024-03-25T13:26:45;4.18;;;0.80;;
70929;SDS011;58588;48.102;19.682;2024-03-25T13:29:46;3.38;;;0.70;;
70929;SDS011;58588;48.102;19.682;2024-03-25T13:32:47;3.50;;;0.70;;
70929;SDS011;58588;48.102;19.682;2024-03-25T13:35:50;3.47;;;0.70;;
70929;SDS011;58588;48.102;19.682;2024-03-25T13:38:50;6.75;;;0.80;;
70929;SDS011;58588;48.102;19.682;2024-03-25T13:41:51;4.80;;;1.05;;
70929;SDS011;58588;48.102;19.682;2024-03-25T13:44:52;3.43;;;0.80;;
70929;SDS011;58588;48.102;19.682;2024-03-25T13:47:53;3.70;;;0.90;;
70929;SDS011;58588;48.102;19.682;2024-03-25T13:50:56;4.60;;;0.60;;
70929;SDS011;58588;48.102;19.682;2024-03-25T13:53:56;3.43;;;0.60;;
70929;SDS011;58588;48.102;19.682;2024-03-25T13:56:58;3.22;;;0.55;;
70929;SDS011;58588;48.102;19.682;2024-03-25T13:59:59;3.45;;;0.73;;
70929;SDS011;58588;48.102;19.682;2024-03-25T14:03:00;5.95;;;1.00;;
70929;SDS011;58588;48.102;19.682;2024-03-25T14:06:02;5.47;;;0.90;;
70929;SDS011;58588;48.102;19.682;2024-03-25T14:09:03;4.40;;;0.90;;
70929;SDS011;58588;48.102;19.682;2024-03-25T14:12:05;5.07;;;1.05;;
70929;SDS011;58588;48.102;19.682;2024-03-25T14:15:06;3.88;;;0.75;;
70929;SDS011;58588;48.102;19.682;2024-03-25T14:18:08;4.78;;;1.08;;
70929;SDS011;58588;48.102;19.682;2024-03-25T14:21:11;3.73;;;0.80;;
70929;SDS011;58588;48.102;19.682;2024-03-25T14:24:12;4.43;;;1.05;;
70929;SDS011;58588;48.102;19.682;2024-03-25T14:27:13;4.93;;;1.10;;
70929;SDS011;58588;48.102;19.682;2024-03-25T14:30:14;5.30;;;1.30;;
70929;SDS011;58588;48.102;19.682;2024-03-25T14:33:15;8.63;;;2.17;;
70929;SDS011;58588;48.102;19.682;2024-03-25T14:36:18;8.52;;;3.55;;
70929;SDS011;58588;48.102;19.682;2024-03-25T14:39:19;6.78;;;2.30;;
70929;SDS011;58588;48.102;19.682;2024-03-25T14:42:20;4.72;;;1.40;;
70929;SDS011;58588;48.102;19.682;2024-03-25T14:45:20;3.60;;;0.73;;
70929;SDS011;58588;48.102;19.682;2024-03-25T14:48:21;2.90;;;0.50;;
70929;SDS011;58588;48.102;19.682;2024-03-25T14:51:24;3.38;;;0.40;;
70929;SDS011;58588;48.102;19.682;2024-03-25T14:54:32;2.78;;;0.40;;
70929;SDS011;58588;48.102;19.682;2024-03-25T14:57:34;2.43;;;0.23;;
70929;SDS011;58588;48.102;19.682;2024-03-25T15:00:35;1.88;;;0.28;;
70929;SDS011;58588;48.102;19.682;2024-03-25T15:03:36;2.58;;;0.38;;
70929;SDS011;58588;48.102;19.682;2024-03-25T15:06:39;2.47;;;0.40;;
70929;SDS011;58588;48.102;19.682;2024-03-25T15:09:40;4.10;;;0.60;;
70929;SDS011;58588;48.102;19.682;2024-03-25T15:12:41;2.27;;;0.33;;
70929;SDS011;58588;48.102;19.682;2024-03-25T15:15:41;2.22;;;0.40;;
70929;SDS011;58588;48.102;19.682;2024-03-25T15:18:43;2.13;;;0.40;;
70929;SDS011;58588;48.102;19.682;2024-03-25T15:21:45;3.03;;;0.50;;
70929;SDS011;58588;48.102;19.682;2024-03-25T15:24:46;2.83;;;0.40;;
70929;SDS011;58588;48.102;19.682;2024-03-25T15:27:47;2.50;;;0.43;;
70929;SDS011;58588;48.102;19.682;2024-03-25T15:30:48;2.33;;;0.40;;
70929;SDS011;58588;48.102;19.682;2024-03-25T15:33:49;2.45;;;0.40;;
70929;SDS011;58588;48.102;19.682;2024-03-25T15:36:53;2.43;;;0.40;;
70929;SDS011;58588;48.102;19.682;2024-03-25T15:39:54;2.50;;;0.50;;
70929;SDS011;58588;48.102;19.682;2024-03-25T15:42:55;3.05;;;0.63;;
70929;SDS011;58588;48.102;19.682;2024-03-25T15:45:55;7.00;;;1.92;;
70929;SDS011;58588;48.102;19.682;2024-03-25T15:48:57;11.50;;;8.07;;
70929;SDS011;58588;48.102;19.682;2024-03-25T15:51:59;4.60;;;1.45;;
70929;SDS011;58588;48.102;19.682;2024-03-25T15:55:00;25.38;;;20.80;;
70929;SDS011;58588;48.102;19.682;2024-03-25T15:58:01;6.03;;;2.72;;
70929;SDS011;58588;48.102;19.682;2024-03-25T16:01:02;5.13;;;1.50;;
70929;SDS011;58588;48.102;19.682;2024-03-25T16:04:03;7.03;;;2.60;;
70929;SDS011;58588;48.102;19.682;2024-03-25T16:07:06;5.03;;;1.15;;
70929;SDS011;58588;48.102;19.682;2024-03-25T16:10:07;4.05;;;0.82;;
70929;SDS011;58588;48.102;19.682;2024-03-25T16:13:09;4.55;;;0.90;;
70929;SDS011;58588;48.102;19.682;2024-03-25T16:16:10;6.20;;;2.93;;
70929;SDS011;58588;48.102;19.682;2024-03-25T16:22:18;16.45;;;11.23;;
70929;SDS011;58588;48.102;19.682;2024-03-25T16:25:19;8.55;;;5.28;;
70929;SDS011;58588;48.102;19.682;2024-03-25T16:28:21;11.37;;;7.67;;
70929;SDS011;58588;48.102;19.682;2024-03-25T16:31:25;5.27;;;1.90;;
70929;SDS011;58588;48.102;19.682;2024-03-25T16:34:26;7.43;;;1.98;;
70929;SDS011;58588;48.102;19.682;2024-03-25T16:37:32;3.95;;;1.05;;
70929;SDS011;58588;48.102;19.682;2024-03-25T16:40:34;2.83;;;0.50;;
70929;SDS011;58588;48.102;19.682;2024-03-25T16:43:35;5.33;;;0.60;;
70929;SDS011;58588;48.102;19.682;2024-03-25T16:46:36;3.08;;;0.70;;
70929;SDS011;58588;48.102;19.682;2024-03-25T16:49:37;36.55;;;11.85;;
70929;SDS011;58588;48.102;19.682;2024-03-25T16:52:39;27.50;;;10.98;;
70929;SDS011;58588;48.102;19.682;2024-03-25T16:55:40;21.87;;;12.47;;
70929;SDS011;58588;48.102;19.682;2024-03-25T16:58:41;11.27;;;4.63;;
70929;SDS011;58588;48.102;19.682;2024-03-25T17:01:42;13.90;;;5.68;;
70929;SDS011;58588;48.102;19.682;2024-03-25T17:04:43;19.50;;;8.70;;
70929;SDS011;58588;48.102;19.682;2024-03-25T17:07:45;17.63;;;6.67;;
70929;SDS011;58588;48.102;19.682;2024-03-25T17:10:46;20.90;;;8.87;;
70929;SDS011;58588;48.102;19.682;2024-03-25T17:13:47;14.15;;;6.60;;
70929;SDS011;58588;48.102;19.682;2024-03-25T17:16:48;17.42;;;5.90;;
70929;SDS011;58588;48.102;19.682;2024-03-25T17:19:49;23.43;;;10.73;;
70929;SDS011;58588;48.102;19.682;2024-03-25T17:23:01;21.70;;;9.63;;
70929;SDS011;58588;48.102;19.682;2024-03-25T17:26:02;16.35;;;8.10;;
70929;SDS011;58588;48.102;19.682;2024-03-25T17:29:04;50.55;;;21.85;;
70929;SDS011;58588;48.102;19.682;2024-03-25T17:32:05;25.08;;;11.82;;
70929;SDS011;58588;48.102;19.682;2024-03-25T17:35:06;23.93;;;11.13;;
70929;SDS011;58588;48.102;19.682;2024-03-25T17:38:09;26.98;;;13.65;;
70929;SDS011;58588;48.102;19.682;2024-03-25T17:41:10;22.95;;;11.05;;
70929;SDS011;58588;48.102;19.682;2024-03-25T17:44:11;16.63;;;7.47;;
70929;SDS011;58588;48.102;19.682;2024-03-25T17:47:12;15.03;;;6.00;;
70929;SDS011;58588;48.102;19.682;2024-03-25T17:50:13;17.13;;;8.00;;
70929;SDS011;58588;48.102;19.682;2024-03-25T17:53:15;14.80;;;5.63;;
70929;SDS011;58588;48.102;19.682;2024-03-25T17:56:16;14.80;;;5.97;;
70929;SDS011;58588;48.102;19.682;2024-03-25T17:59:17;13.95;;;5.97;;